createdAt,value
2023-03-11T00:00:16.972Z,1.90
2023-03-11T00:02:44.953Z,1.70
2023-03-11T00:05:21.707Z,2.13
2023-03-11T00:08:43.759Z,1.80
2023-03-11T00:11:10.502Z,1.90
2023-03-11T00:13:37.867Z,1.70
2023-03-11T00:16:05.055Z,2.10
2023-03-11T00:18:31.943Z,2.03
2023-03-11T00:20:59.681Z,1.80
2023-03-11T00:23:27.512Z,1.73
2023-03-11T00:25:54.480Z,2.07
2023-03-11T00:28:25.281Z,2.00
2023-03-11T00:30:52.531Z,2.20
2023-03-11T00:33:19.320Z,1.83
2023-03-11T00:35:46.069Z,2.10
2023-03-11T00:38:15.413Z,1.87
2023-03-11T00:40:43.637Z,1.97
2023-03-11T00:43:10.450Z,2.20
2023-03-11T00:45:37.215Z,2.13
2023-03-11T00:48:04.951Z,2.30
2023-03-11T00:50:35.524Z,2.00
2023-03-11T00:53:03.327Z,2.20
2023-03-11T00:55:32.339Z,2.30
2023-03-11T00:58:06.853Z,2.50
2023-03-11T01:00:40.957Z,2.30
2023-03-11T01:03:07.855Z,2.30
2023-03-11T01:05:35.093Z,2.40
2023-03-11T01:08:03.630Z,2.20
2023-03-11T01:10:35.713Z,2.93
2023-03-11T01:13:03.402Z,1.80
2023-03-11T01:15:34.335Z,2.43
2023-03-11T01:18:01.601Z,1.70
2023-03-11T01:20:28.529Z,2.87
2023-03-11T01:22:55.389Z,1.90
2023-03-11T01:25:23.830Z,2.37
2023-03-11T01:27:50.683Z,2.20
2023-03-11T01:30:23.403Z,3.13
2023-03-11T01:32:52.765Z,3.87
2023-03-11T01:35:23.174Z,1.90
2023-03-11T01:37:50.317Z,2.53
2023-03-11T01:40:31.296Z,2.17
2023-03-11T01:43:01.882Z,1.97
2023-03-11T01:46:02.375Z,1.90
2023-03-11T01:48:30.531Z,2.07
2023-03-11T01:50:57.666Z,2.83
2023-03-11T01:53:25.344Z,2.53
2023-03-11T01:55:52.300Z,3.27
2023-03-11T01:58:25.491Z,2.90
2023-03-11T02:00:53.656Z,2.20
2023-03-11T02:03:37.655Z,1.70
2023-03-11T02:06:09.311Z,2.10
2023-03-11T02:08:36.838Z,2.37
2023-03-11T02:11:07.997Z,1.40
2023-03-11T02:13:36.136Z,1.30
2023-03-11T02:16:03.834Z,3.90
2023-03-11T02:18:31.529Z,1.20
2023-03-11T02:21:01.282Z,2.20
2023-03-11T02:23:42.573Z,1.83
2023-03-11T02:26:30.478Z,1.00
2023-03-11T02:28:58.304Z,2.53
2023-03-11T02:31:27.652Z,1.67
2023-03-11T02:33:57.806Z,1.27
2023-03-11T02:36:51.847Z,1.00
2023-03-11T02:39:37.610Z,1.67
2023-03-11T02:42:17.240Z,2.07
2023-03-11T02:44:47.433Z,1.73
2023-03-11T02:47:15.681Z,3.23
2023-03-11T02:49:42.959Z,1.10
2023-03-11T02:52:10.704Z,1.93
2023-03-11T02:54:37.436Z,1.27
2023-03-11T02:57:04.345Z,1.53
2023-03-11T02:59:31.124Z,2.33
2023-03-11T03:01:59.961Z,2.53
2023-03-11T03:04:27.611Z,4.03
2023-03-11T03:06:54.391Z,1.27
2023-03-11T03:09:21.173Z,1.70
2023-03-11T03:11:48.015Z,1.53
2023-03-11T03:14:14.791Z,1.23
2023-03-11T03:16:41.722Z,1.80
2023-03-11T03:19:08.671Z,2.60
2023-03-11T03:21:35.646Z,1.93
2023-03-11T03:24:03.229Z,3.40
2023-03-11T03:26:30.042Z,2.00
2023-03-11T03:28:56.826Z,1.37
2023-03-11T03:31:23.657Z,1.33
2023-03-11T03:33:50.761Z,4.00
2023-03-11T03:36:17.589Z,2.43
2023-03-11T03:38:49.280Z,3.50
2023-03-11T03:41:16.525Z,1.43
2023-03-11T03:43:44.495Z,1.93
2023-03-11T03:46:11.798Z,2.57
2023-03-11T03:48:42.711Z,1.23
2023-03-11T03:51:12.502Z,2.37
2023-03-11T03:53:46.464Z,2.23
2023-03-11T03:56:16.297Z,1.53
2023-03-11T03:58:44.413Z,1.00
2023-03-11T04:01:11.906Z,1.20
2023-03-11T04:03:39.913Z,1.80
2023-03-11T04:06:15.120Z,2.10
2023-03-11T04:08:42.394Z,3.07
2023-03-11T04:11:11.174Z,2.43
2023-03-11T04:13:38.737Z,1.50
2023-03-11T04:16:07.620Z,2.90
2023-03-11T04:18:35.145Z,1.93
2023-03-11T04:21:06.486Z,2.20
2023-03-11T04:23:34.001Z,3.67
2023-03-11T04:26:01.182Z,3.50
2023-03-11T04:28:28.178Z,3.03
2023-03-11T04:30:55.140Z,2.47
2023-03-11T04:33:22.177Z,2.53
2023-03-11T04:35:49.629Z,2.70
2023-03-11T04:38:18.430Z,2.87
2023-03-11T04:40:45.554Z,2.83
2023-03-11T04:43:12.870Z,3.37
2023-03-11T04:45:40.360Z,5.07
2023-03-11T04:48:08.121Z,2.80
2023-03-11T04:50:36.400Z,4.37
2023-03-11T04:53:03.688Z,1.83
2023-03-11T04:55:30.402Z,2.20
2023-03-11T04:57:57.494Z,2.37
2023-03-11T05:00:25.193Z,3.60
2023-03-11T05:03:00.563Z,2.23
2023-03-11T05:05:27.447Z,3.20
2023-03-11T05:07:54.258Z,3.53
2023-03-11T05:10:22.601Z,3.17
2023-03-11T05:12:52.879Z,2.97
2023-03-11T05:15:21.152Z,2.40
2023-03-11T05:17:48.048Z,4.30
2023-03-11T05:20:15.894Z,2.37
2023-03-11T05:22:43.058Z,3.37
2023-03-11T05:25:11.062Z,1.43
2023-03-11T05:27:38.393Z,2.73
2023-03-11T05:30:07.894Z,4.10
2023-03-11T05:32:36.708Z,2.90
2023-03-11T05:35:06.690Z,1.97
2023-03-11T05:37:35.301Z,3.30
2023-03-11T05:40:06.769Z,7.07
2023-03-11T05:42:36.113Z,3.30
2023-03-11T05:45:03.837Z,4.77
2023-03-11T05:47:32.561Z,5.13
2023-03-11T05:49:59.807Z,2.30
2023-03-11T05:52:27.684Z,4.53
2023-03-11T05:54:54.533Z,2.33
2023-03-11T05:57:25.410Z,3.77
2023-03-11T05:59:52.204Z,2.70
2023-03-11T06:02:21.070Z,3.73
2023-03-11T06:04:48.848Z,2.67
2023-03-11T06:07:16.292Z,1.80
2023-03-11T06:09:45.882Z,4.17
2023-03-11T06:12:17.025Z,4.90
2023-03-11T06:15:11.898Z,3.30
2023-03-11T06:17:39.922Z,2.17
2023-03-11T06:20:09.747Z,2.13
2023-03-11T06:22:39.946Z,3.97
2023-03-11T06:25:08.128Z,3.70
2023-03-11T06:27:35.326Z,3.00
2023-03-11T06:30:02.715Z,3.67
2023-03-11T06:32:35.428Z,2.43
2023-03-11T06:35:02.597Z,5.10
2023-03-11T06:37:29.460Z,2.70
2023-03-11T06:39:57.009Z,3.30
2023-03-11T06:42:26.714Z,2.33
2023-03-11T06:44:56.556Z,2.87
2023-03-11T06:47:24.020Z,2.27
2023-03-11T06:49:51.958Z,3.10
2023-03-11T06:52:19.078Z,4.43
2023-03-11T06:54:46.166Z,7.67
2023-03-11T06:57:14.845Z,5.33
2023-03-11T06:59:41.658Z,5.57
2023-03-11T07:02:13.602Z,4.37
2023-03-11T07:04:41.871Z,5.43
2023-03-11T07:07:08.621Z,4.03
2023-03-11T07:09:35.564Z,2.80
2023-03-11T07:12:06.624Z,3.77
2023-03-11T07:14:36.124Z,2.13
2023-03-11T07:17:02.991Z,4.70
2023-03-11T07:19:37.614Z,4.57
2023-03-11T07:22:04.354Z,3.70
2023-03-11T07:24:31.106Z,4.50
2023-03-11T07:26:57.854Z,4.17
2023-03-11T07:29:24.588Z,3.87
2023-03-11T07:31:51.363Z,4.03
2023-03-11T07:34:18.161Z,5.27
2023-03-11T07:36:45.026Z,4.57
2023-03-11T07:39:17.864Z,4.70
2023-03-11T07:41:45.342Z,4.53
2023-03-11T07:44:14.270Z,5.30
2023-03-11T07:46:41.149Z,4.23
2023-03-11T07:49:08.041Z,6.13
2023-03-11T07:51:36.314Z,4.40
2023-03-11T07:54:04.038Z,4.60
2023-03-11T07:56:33.406Z,4.67
2023-03-11T07:59:01.739Z,3.80
2023-03-11T08:01:35.992Z,4.53
2023-03-11T08:04:08.208Z,4.63
2023-03-11T08:06:36.682Z,3.13
2023-03-11T08:09:07.567Z,5.93
2023-03-11T08:11:35.120Z,3.80
2023-03-11T08:14:01.924Z,5.30
2023-03-11T08:16:29.455Z,6.50
2023-03-11T08:18:56.225Z,4.20
2023-03-11T08:21:25.795Z,3.63
2023-03-11T08:23:53.094Z,4.57
2023-03-11T08:26:21.933Z,4.40
2023-03-11T08:28:49.748Z,4.93
2023-03-11T08:31:19.392Z,3.63
2023-03-11T08:33:49.948Z,2.50
2023-03-11T08:36:17.548Z,4.07
2023-03-11T08:38:44.420Z,4.53
2023-03-11T08:41:11.241Z,3.90
2023-03-11T08:43:38.439Z,6.10
2023-03-11T08:46:09.156Z,7.73
2023-03-11T08:48:37.688Z,10.63
2023-03-11T08:51:13.736Z,8.20
2023-03-11T08:53:40.790Z,9.93
2023-03-11T08:56:09.249Z,7.07
2023-03-11T08:58:36.103Z,9.63
2023-03-11T09:01:03.167Z,8.73
2023-03-11T09:03:36.823Z,9.77
2023-03-11T09:06:15.500Z,6.20
2023-03-11T09:08:43.283Z,5.77
2023-03-11T09:11:11.152Z,7.83
2023-03-11T09:13:40.935Z,6.70
2023-03-11T09:16:17.130Z,5.00
2023-03-11T09:18:43.947Z,5.00
2023-03-11T09:21:11.290Z,3.70
2023-03-11T09:23:38.158Z,4.73
2023-03-11T09:26:05.506Z,5.20
2023-03-11T09:28:32.547Z,3.20
2023-03-11T09:30:59.458Z,5.87
2023-03-11T09:33:26.274Z,6.80
2023-03-11T09:35:53.018Z,6.27
2023-03-11T09:38:19.796Z,6.03
2023-03-11T09:40:59.373Z,4.77
2023-03-11T09:43:46.127Z,5.57
2023-03-11T09:46:27.932Z,5.13
2023-03-11T09:49:03.697Z,6.30
2023-03-11T09:51:36.130Z,5.47
2023-03-11T09:54:10.995Z,3.30
2023-03-11T09:56:39.076Z,3.50
2023-03-11T09:59:13.935Z,5.90
2023-03-11T10:01:43.158Z,4.80
2023-03-11T10:04:18.744Z,3.47
2023-03-11T10:06:46.867Z,5.23
2023-03-11T10:09:39.583Z,3.10
2023-03-11T10:12:28.117Z,3.10
2023-03-11T10:15:09.378Z,5.83
2023-03-11T10:17:51.453Z,4.43
2023-03-11T10:20:59.850Z,5.47
2023-03-11T10:23:56.346Z,3.40
2023-03-11T10:26:37.193Z,5.87
2023-03-11T10:29:16.426Z,3.30
2023-03-11T10:31:50.478Z,4.67
2023-03-11T10:34:26.031Z,2.93
2023-03-11T10:37:12.071Z,7.70
2023-03-11T10:39:40.711Z,6.47
2023-03-11T10:42:15.179Z,5.00
2023-03-11T10:44:42.908Z,4.43
2023-03-11T10:47:23.664Z,3.87
2023-03-11T10:49:52.416Z,3.57
2023-03-11T10:52:20.379Z,5.40
2023-03-11T10:54:58.606Z,4.53
2023-03-11T10:57:33.387Z,3.47
2023-03-11T11:00:02.323Z,2.63
2023-03-11T11:02:53.257Z,3.27
2023-03-11T11:05:22.855Z,3.90
2023-03-11T11:08:03.610Z,3.43
2023-03-11T11:10:31.917Z,3.93
2023-03-11T11:13:01.165Z,2.33
2023-03-11T11:15:32.411Z,3.50
2023-03-11T11:18:14.647Z,3.23
2023-03-11T11:20:58.225Z,4.23
2023-03-11T11:23:40.620Z,2.53
2023-03-11T11:26:24.827Z,3.97
2023-03-11T11:29:13.023Z,3.20
2023-03-11T11:31:42.374Z,3.20
2023-03-11T11:34:35.566Z,3.47
2023-03-11T11:37:05.228Z,3.50
2023-03-11T11:39:56.177Z,4.03
2023-03-11T11:42:25.434Z,3.70
2023-03-11T11:45:04.511Z,3.20
2023-03-11T11:47:36.202Z,3.37
2023-03-11T11:50:07.073Z,6.30
2023-03-11T11:53:13.039Z,3.17
2023-03-11T11:55:46.383Z,3.93
2023-03-11T11:58:13.263Z,4.53
2023-03-11T12:00:58.179Z,4.53
2023-03-11T12:03:58.062Z,2.40
2023-03-11T12:06:44.794Z,2.87
2023-03-11T12:09:29.715Z,3.17
2023-03-11T12:12:13.219Z,3.83
2023-03-11T12:14:45.968Z,1.87
2023-03-11T12:17:15.530Z,5.03
2023-03-11T12:19:51.748Z,2.70
2023-03-11T12:22:57.190Z,2.83
2023-03-11T12:25:36.881Z,2.60
2023-03-11T12:28:40.866Z,6.67
2023-03-11T12:31:11.189Z,4.37
2023-03-11T12:33:45.457Z,4.60
2023-03-11T12:36:30.524Z,4.07
2023-03-11T12:38:58.412Z,11.07
2023-03-11T12:41:33.940Z,3.93
2023-03-11T12:44:22.668Z,5.27
2023-03-11T12:46:58.669Z,3.53
2023-03-11T12:49:27.187Z,3.13
2023-03-11T12:52:08.973Z,4.77
2023-03-11T12:54:44.150Z,2.70
2023-03-11T12:57:16.877Z,3.10
2023-03-11T13:00:00.538Z,3.33
2023-03-11T13:02:59.799Z,5.33
2023-03-11T13:05:50.461Z,5.50
2023-03-11T13:08:32.733Z,9.50
2023-03-11T13:10:59.593Z,16.60
2023-03-11T13:13:38.390Z,6.23
2023-03-11T13:16:14.360Z,14.87
2023-03-11T13:18:43.265Z,12.90
2023-03-11T13:21:28.305Z,13.00
2023-03-11T13:24:25.609Z,10.23
2023-03-11T13:26:58.394Z,11.60
2023-03-11T13:29:44.986Z,8.50
2023-03-11T13:32:34.607Z,8.63
2023-03-11T13:35:22.051Z,8.00
2023-03-11T13:37:57.996Z,4.93
2023-03-11T13:40:52.544Z,6.47
2023-03-11T13:43:21.905Z,5.13
2023-03-11T13:46:00.326Z,5.57
2023-03-11T13:48:37.885Z,7.73
2023-03-11T13:51:13.119Z,7.10
2023-03-11T13:53:48.233Z,4.67
2023-03-11T13:56:23.965Z,5.97
2023-03-11T13:58:50.805Z,5.17
2023-03-11T14:01:18.871Z,6.23
2023-03-11T14:03:47.826Z,12.77
2023-03-11T14:06:20.859Z,6.37
2023-03-11T14:08:55.361Z,6.83
2023-03-11T14:11:27.196Z,5.13
2023-03-11T14:13:54.070Z,5.90
2023-03-11T14:16:35.764Z,3.63
2023-03-11T14:19:15.292Z,5.60
2023-03-11T14:21:43.177Z,4.23
2023-03-11T14:24:20.847Z,3.43
2023-03-11T14:26:48.682Z,3.90
2023-03-11T14:29:21.684Z,2.93
2023-03-11T14:31:48.696Z,2.87
2023-03-11T14:34:19.602Z,9.00
2023-03-11T14:36:48.587Z,4.70
2023-03-11T14:39:30.170Z,4.20
2023-03-11T14:42:29.877Z,2.60
2023-03-11T14:45:07.310Z,3.93
2023-03-11T14:47:46.064Z,2.40
2023-03-11T14:50:19.157Z,2.37
2023-03-11T14:53:10.166Z,5.10
2023-03-11T14:55:40.683Z,3.07
2023-03-11T14:58:42.986Z,2.37
2023-03-11T15:01:21.334Z,2.77
2023-03-11T15:03:48.049Z,3.67
2023-03-11T15:06:17.679Z,3.13
2023-03-11T15:09:00.981Z,3.50
2023-03-11T15:11:29.288Z,1.70
2023-03-11T15:14:35.779Z,2.67
2023-03-11T15:17:33.993Z,3.73
2023-03-11T15:20:07.398Z,3.07
2023-03-11T15:22:39.677Z,2.50
2023-03-11T15:25:18.569Z,4.73
2023-03-11T15:27:46.185Z,3.30
2023-03-11T15:30:39.539Z,3.93
2023-03-11T15:33:24.302Z,8.63
2023-03-11T15:35:51.104Z,7.53
2023-03-11T15:38:25.302Z,5.87
2023-03-11T15:41:03.732Z,6.33
2023-03-11T15:43:48.387Z,4.57
2023-03-11T15:46:15.268Z,4.17
2023-03-11T15:48:42.959Z,4.93
2023-03-11T15:51:19.936Z,2.80
2023-03-11T15:53:46.653Z,3.30
2023-03-11T15:56:20.557Z,3.67
2023-03-11T15:58:47.300Z,4.03
2023-03-11T16:01:14.024Z,3.87
2023-03-11T16:03:40.894Z,5.40
2023-03-11T16:06:07.841Z,2.53
2023-03-11T16:08:34.723Z,5.70
2023-03-11T16:11:01.457Z,6.80
2023-03-11T16:13:28.196Z,3.50
2023-03-11T16:15:54.981Z,3.23
2023-03-11T16:18:21.736Z,31.13
2023-03-11T16:20:51.937Z,38.70
2023-03-11T16:23:27.054Z,31.47
2023-03-11T16:25:58.164Z,14.07
2023-03-11T16:28:25.010Z,7.73
2023-03-11T16:30:52.018Z,7.37
2023-03-11T16:33:18.792Z,10.97
2023-03-11T16:35:46.173Z,5.07
2023-03-11T16:38:13.144Z,3.30
2023-03-11T16:40:40.218Z,3.53
2023-03-11T16:43:09.427Z,4.63
2023-03-11T16:45:36.529Z,3.07
2023-03-11T16:48:05.522Z,5.27
2023-03-11T16:50:33.762Z,5.67
2023-03-11T16:53:00.982Z,3.57
2023-03-11T16:55:28.660Z,5.93
2023-03-11T16:57:57.408Z,2.60
2023-03-11T17:00:27.389Z,4.07
2023-03-11T17:02:54.576Z,3.23
2023-03-11T17:05:21.673Z,6.53
2023-03-11T17:07:48.475Z,4.13
2023-03-11T17:10:15.635Z,4.37
2023-03-11T17:12:42.457Z,3.90
2023-03-11T17:15:09.478Z,3.27
2023-03-11T17:17:36.486Z,3.53
2023-03-11T17:20:06.246Z,2.27
2023-03-11T17:22:33.002Z,3.63
2023-03-11T17:24:59.914Z,2.30
2023-03-11T17:27:32.066Z,4.47
2023-03-11T17:30:00.220Z,4.47
2023-03-11T17:32:27.196Z,3.80
2023-03-11T17:34:54.069Z,4.17
2023-03-11T17:37:20.898Z,4.17
2023-03-11T17:39:47.679Z,6.47
2023-03-11T17:42:14.429Z,2.70
2023-03-11T17:44:50.905Z,5.30
2023-03-11T17:47:19.637Z,4.33
2023-03-11T17:49:47.497Z,3.53
2023-03-11T17:52:14.229Z,3.53
2023-03-11T17:54:40.929Z,5.07
2023-03-11T17:57:07.724Z,4.07
2023-03-11T17:59:34.535Z,7.27
2023-03-11T18:02:01.343Z,5.20
2023-03-11T18:04:28.445Z,9.60
2023-03-11T18:06:56.200Z,3.97
2023-03-11T18:09:23.069Z,4.77
2023-03-11T18:11:49.916Z,5.67
2023-03-11T18:14:16.906Z,6.13
2023-03-11T18:16:43.662Z,3.13
2023-03-11T18:19:10.427Z,4.07
2023-03-11T18:21:37.160Z,4.47
2023-03-11T18:24:04.088Z,5.90
2023-03-11T18:26:31.346Z,4.23
2023-03-11T18:29:00.031Z,3.97
2023-03-11T18:31:28.128Z,3.97
2023-03-11T18:34:00.602Z,2.57
2023-03-11T18:36:29.688Z,3.10
2023-03-11T18:38:57.803Z,5.63
2023-03-11T18:41:25.766Z,3.27
2023-03-11T18:43:59.779Z,4.90
2023-03-11T18:46:28.895Z,2.93
2023-03-11T18:48:57.589Z,3.77
2023-03-11T18:51:25.438Z,4.87
2023-03-11T18:53:52.204Z,6.23
2023-03-11T18:56:19.171Z,2.47
2023-03-11T18:58:46.378Z,4.40
2023-03-11T19:01:15.897Z,5.00
2023-03-11T19:03:44.293Z,4.40
2023-03-11T19:06:13.127Z,4.73
2023-03-11T19:08:40.466Z,5.43
2023-03-11T19:11:12.741Z,2.83
2023-03-11T19:13:46.997Z,5.47
2023-03-11T19:16:16.305Z,4.87
2023-03-11T19:18:43.047Z,4.70
2023-03-11T19:21:12.211Z,6.57
2023-03-11T19:23:39.189Z,4.73
2023-03-11T19:26:06.520Z,3.87
2023-03-11T19:28:33.340Z,4.37
2023-03-11T19:31:00.640Z,3.87
2023-03-11T19:33:27.774Z,6.67
2023-03-11T19:35:55.426Z,3.07
2023-03-11T19:38:22.828Z,4.00
2023-03-11T19:41:14.429Z,2.50
2023-03-11T19:43:41.959Z,5.13
2023-03-11T19:46:12.283Z,3.90
2023-03-11T19:48:39.406Z,3.60
2023-03-11T19:51:06.842Z,6.37
2023-03-11T19:53:35.532Z,4.47
2023-03-11T19:56:03.819Z,3.60
2023-03-11T19:58:31.414Z,4.23
2023-03-11T20:00:59.160Z,2.77
2023-03-11T20:03:26.383Z,4.90
2023-03-11T20:05:55.651Z,4.13
2023-03-11T20:08:23.616Z,6.47
2023-03-11T20:10:52.508Z,3.33
2023-03-11T20:13:21.376Z,6.23
2023-03-11T20:15:48.718Z,3.20
2023-03-11T20:18:15.604Z,3.73
2023-03-11T20:20:43.269Z,3.17
2023-03-11T20:23:11.207Z,4.00
2023-03-11T20:25:39.521Z,5.13
2023-03-11T20:28:06.638Z,5.60
2023-03-11T20:30:33.611Z,5.03
2023-03-11T20:33:00.382Z,9.80
2023-03-11T20:35:27.459Z,7.47
2023-03-11T20:37:54.330Z,4.77
2023-03-11T20:40:22.008Z,6.17
2023-03-11T20:42:48.853Z,4.30
2023-03-11T20:45:21.233Z,3.23
2023-03-11T20:47:53.609Z,7.10
2023-03-11T20:50:21.816Z,5.33
2023-03-11T20:52:49.467Z,4.40
2023-03-11T20:55:16.292Z,3.73
2023-03-11T20:57:43.233Z,3.23
2023-03-11T21:00:13.214Z,3.80
2023-03-11T21:02:41.546Z,3.13
2023-03-11T21:05:10.131Z,4.93
2023-03-11T21:07:37.053Z,3.60
2023-03-11T21:10:06.879Z,4.27
2023-03-11T21:12:33.751Z,4.30
2023-03-11T21:15:00.917Z,5.30
2023-03-11T21:17:27.715Z,6.63
2023-03-11T21:19:54.506Z,6.13
2023-03-11T21:22:21.335Z,4.87
2023-03-11T21:24:55.121Z,4.70
2023-03-11T21:27:26.407Z,4.87
2023-03-11T21:29:57.281Z,4.77
2023-03-11T21:32:25.738Z,5.53
2023-03-11T21:35:00.417Z,6.90
2023-03-11T21:37:28.158Z,5.03
2023-03-11T21:39:55.648Z,5.00
2023-03-11T21:42:22.788Z,5.57
2023-03-11T21:44:51.330Z,8.27
2023-03-11T21:47:18.401Z,4.47
2023-03-11T21:49:45.238Z,6.13
2023-03-11T21:52:11.942Z,4.33
2023-03-11T21:54:38.808Z,5.60
2023-03-11T21:57:05.627Z,4.70
2023-03-11T21:59:32.425Z,3.57
2023-03-11T22:02:02.994Z,5.53
2023-03-11T22:04:31.034Z,4.23
2023-03-11T22:06:57.996Z,4.90
2023-03-11T22:09:26.215Z,4.43
2023-03-11T22:11:53.845Z,3.60
2023-03-11T22:14:20.841Z,3.57
2023-03-11T22:16:47.704Z,3.90
2023-03-11T22:19:15.065Z,3.33
2023-03-11T22:21:42.124Z,5.37
2023-03-11T22:24:08.963Z,27.37
2023-03-11T22:26:36.007Z,13.40
2023-03-11T22:29:04.073Z,14.93
2023-03-11T22:31:31.346Z,14.63
2023-03-11T22:33:58.249Z,8.13
2023-03-11T22:36:25.039Z,5.53
2023-03-11T22:38:51.874Z,4.50
2023-03-11T22:41:20.207Z,6.90
2023-03-11T22:43:47.393Z,5.83
2023-03-11T22:46:14.513Z,5.07
2023-03-11T22:48:41.689Z,4.40
2023-03-11T22:51:08.541Z,5.20
2023-03-11T22:53:35.328Z,5.53
2023-03-11T22:56:08.263Z,4.50
2023-03-11T22:58:35.035Z,5.57
2023-03-11T23:01:03.905Z,5.57
2023-03-11T23:03:32.685Z,7.03
2023-03-11T23:06:00.552Z,3.67
2023-03-11T23:08:27.417Z,5.17
2023-03-11T23:10:54.151Z,5.10
2023-03-11T23:13:21.071Z,4.00
2023-03-11T23:15:48.214Z,5.60
2023-03-11T23:18:15.773Z,4.67
2023-03-11T23:20:43.856Z,4.30
2023-03-11T23:23:11.629Z,5.03
2023-03-11T23:25:39.087Z,6.17
2023-03-11T23:28:06.329Z,4.67
2023-03-11T23:30:33.560Z,5.13
2023-03-11T23:33:02.838Z,4.17
2023-03-11T23:35:30.128Z,3.90
2023-03-11T23:37:56.913Z,5.07
2023-03-11T23:40:23.643Z,5.30
2023-03-11T23:42:50.799Z,5.70
2023-03-11T23:45:17.643Z,5.30
2023-03-11T23:47:44.404Z,3.93
2023-03-11T23:50:11.357Z,6.30
2023-03-11T23:52:38.075Z,5.23
2023-03-11T23:55:05.216Z,5.10
2023-03-11T23:57:37.220Z,4.90
